createdAt,value
2019-04-03T00:00:34.355Z,8.10
2019-04-03T00:02:38.236Z,8.10
2019-04-03T00:04:42.192Z,8.10
2019-04-03T00:06:46.127Z,8.20
2019-04-03T00:08:50.504Z,8.20
2019-04-03T00:10:54.417Z,8.10
2019-04-03T00:12:59.499Z,8.00
2019-04-03T00:15:04.839Z,8.00
2019-04-03T00:17:08.717Z,8.10
2019-04-03T00:19:14.100Z,8.00
2019-04-03T00:21:19.745Z,8.20
2019-04-03T00:23:23.593Z,8.30
2019-04-03T00:25:27.554Z,8.40
2019-04-03T00:27:31.458Z,8.50
2019-04-03T00:29:38.791Z,8.50
2019-04-03T00:31:44.293Z,8.60
2019-04-03T00:33:48.217Z,8.70
2019-04-03T00:35:53.641Z,8.70
2019-04-03T00:37:57.875Z,8.90
2019-04-03T00:40:04.343Z,8.90
2019-04-03T00:42:09.325Z,8.90
2019-04-03T00:44:13.254Z,9.00
2019-04-03T00:46:17.196Z,8.90
2019-04-03T00:48:21.453Z,8.90
2019-04-03T00:50:26.922Z,9.00
2019-04-03T00:52:31.119Z,9.00
2019-04-03T00:54:35.044Z,8.80
2019-04-03T00:56:39.023Z,8.90
2019-04-03T00:58:43.934Z,8.80
2019-04-03T01:00:50.035Z,8.70
2019-04-03T01:02:54.046Z,8.80
2019-04-03T01:04:58.860Z,8.70
2019-04-03T01:07:03.084Z,8.70
2019-04-03T01:09:08.298Z,8.60
2019-04-03T01:11:12.667Z,8.70
2019-04-03T01:13:16.697Z,8.70
2019-04-03T01:15:20.661Z,8.70
2019-04-03T01:17:24.553Z,8.50
2019-04-03T01:19:28.522Z,8.70
2019-04-03T01:21:32.527Z,8.80
2019-04-03T01:23:37.991Z,8.90
2019-04-03T01:25:42.111Z,9.00
2019-04-03T01:27:47.401Z,8.90
2019-04-03T01:29:51.642Z,9.00
2019-04-03T01:31:55.800Z,9.00
2019-04-03T01:33:59.703Z,9.00
2019-04-03T01:36:03.733Z,9.10
2019-04-03T01:38:08.673Z,9.10
2019-04-03T01:40:16.325Z,9.10
2019-04-03T01:42:22.216Z,9.10
2019-04-03T01:44:25.820Z,9.10
2019-04-03T01:46:37.887Z,9.10
2019-04-03T01:48:42.455Z,9.20
2019-04-03T01:50:46.467Z,9.20
2019-04-03T01:52:50.388Z,9.30
2019-04-03T01:54:54.416Z,9.40
2019-04-03T01:56:58.398Z,9.40
2019-04-03T01:59:02.291Z,9.30
2019-04-03T02:01:06.300Z,9.30
2019-04-03T02:03:11.921Z,9.30
2019-04-03T02:05:17.923Z,9.30
2019-04-03T02:07:22.022Z,9.30
2019-04-03T02:09:26.021Z,9.30
2019-04-03T02:11:30.034Z,9.30
2019-04-03T02:13:34.049Z,9.30
2019-04-03T02:15:37.983Z,9.40
2019-04-03T02:17:42.368Z,9.30
2019-04-03T02:19:46.296Z,9.40
2019-04-03T02:21:50.291Z,9.40
2019-04-03T02:23:55.826Z,9.50
2019-04-03T02:26:02.010Z,9.40
2019-04-03T02:28:05.497Z,9.30
2019-04-03T02:30:13.043Z,9.40
2019-04-03T02:32:15.652Z,9.40
2019-04-03T02:34:19.527Z,9.40
2019-04-03T02:36:23.888Z,9.50
2019-04-03T02:38:27.885Z,9.50
2019-04-03T02:40:33.066Z,9.40
2019-04-03T02:42:40.601Z,9.40
2019-04-03T02:44:42.797Z,9.40
2019-04-03T02:46:46.741Z,9.40
2019-04-03T02:48:50.827Z,9.50
2019-04-03T02:50:55.435Z,9.40
2019-04-03T02:52:59.701Z,9.40
2019-04-03T02:55:07.424Z,9.50
2019-04-03T02:57:16.682Z,9.50
2019-04-03T02:59:17.890Z,9.50
2019-04-03T03:01:21.874Z,9.40
2019-04-03T03:03:27.285Z,9.30
2019-04-03T03:05:31.166Z,9.30
2019-04-03T03:07:36.317Z,9.30
2019-04-03T03:09:41.153Z,9.20
2019-04-03T03:11:46.659Z,9.20
2019-04-03T03:13:51.554Z,9.10
2019-04-03T03:15:56.661Z,9.10
2019-04-03T03:18:00.746Z,9.20
2019-04-03T03:20:07.981Z,9.10
2019-04-03T03:22:14.715Z,9.10
2019-04-03T03:24:18.568Z,9.10
2019-04-03T03:26:23.412Z,9.10
2019-04-03T03:28:27.894Z,9.10
2019-04-03T03:30:41.868Z,9.10
2019-04-03T03:32:39.029Z,9.00
2019-04-03T03:34:52.921Z,9.00
2019-04-03T03:36:51.216Z,8.90
2019-04-03T03:38:58.904Z,8.90
2019-04-03T03:41:04.280Z,8.90
2019-04-03T03:43:08.842Z,8.80
2019-04-03T03:45:19.419Z,8.90
2019-04-03T03:47:21.633Z,8.80
2019-04-03T03:49:26.788Z,8.70
2019-04-03T03:51:33.755Z,8.70
2019-04-03T03:53:38.464Z,8.70
2019-04-03T03:55:43.728Z,8.70
2019-04-03T03:57:48.619Z,8.60
2019-04-03T03:59:52.898Z,8.60
2019-04-03T04:01:57.137Z,8.60
2019-04-03T04:04:01.518Z,8.50
2019-04-03T04:06:05.994Z,8.50
2019-04-03T04:08:11.729Z,8.60
2019-04-03T04:10:18.576Z,8.50
2019-04-03T04:12:23.287Z,8.60
2019-04-03T04:14:28.240Z,8.50
2019-04-03T04:16:35.957Z,8.60
2019-04-03T04:18:39.398Z,8.60
2019-04-03T04:20:45.068Z,8.60
2019-04-03T04:22:51.432Z,8.60
2019-04-03T04:24:59.130Z,8.50
2019-04-03T04:27:03.579Z,8.50
2019-04-03T04:29:10.285Z,8.50
2019-04-03T04:31:13.547Z,8.60
2019-04-03T04:33:18.894Z,8.60
2019-04-03T04:35:22.836Z,8.50
2019-04-03T04:37:29.250Z,8.50
2019-04-03T04:39:33.847Z,8.50
2019-04-03T04:41:37.876Z,8.40
2019-04-03T04:43:42.023Z,8.40
2019-04-03T04:45:46.542Z,8.40
2019-04-03T04:47:50.617Z,8.40
2019-04-03T04:49:54.576Z,8.40
2019-04-03T04:51:58.473Z,8.30
2019-04-03T04:54:02.474Z,8.30
2019-04-03T04:56:07.371Z,8.40
2019-04-03T04:58:11.983Z,8.30
2019-04-03T05:00:17.546Z,8.30
2019-04-03T05:02:21.592Z,8.30
2019-04-03T05:04:25.707Z,8.40
2019-04-03T05:06:29.981Z,8.30
2019-04-03T05:08:34.013Z,8.30
2019-04-03T05:10:38.091Z,8.30
2019-04-03T05:12:44.725Z,8.40
2019-04-03T05:14:48.939Z,8.30
2019-04-03T05:16:54.084Z,8.30
2019-04-03T05:19:08.685Z,8.40
2019-04-03T05:21:05.284Z,8.40
2019-04-03T05:23:09.301Z,8.30
2019-04-03T05:25:13.649Z,8.30
2019-04-03T05:27:19.010Z,8.30
2019-04-03T05:29:22.954Z,8.30
2019-04-03T05:31:26.830Z,8.30
2019-04-03T05:33:30.765Z,8.20
2019-04-03T05:35:37.424Z,8.10
2019-04-03T05:37:41.002Z,8.10
2019-04-03T05:39:44.908Z,8.10
2019-04-03T05:41:48.824Z,8.10
2019-04-03T05:43:54.303Z,8.10
2019-04-03T05:45:59.116Z,8.10
2019-04-03T05:48:04.209Z,8.10
2019-04-03T05:50:09.218Z,8.10
2019-04-03T05:52:13.254Z,8.10
2019-04-03T05:54:17.379Z,8.00
2019-04-03T05:56:21.571Z,8.10
2019-04-03T05:58:26.978Z,8.10
2019-04-03T06:00:30.874Z,8.10
2019-04-03T06:02:35.214Z,8.10
2019-04-03T06:04:40.748Z,8.20
2019-04-03T06:06:46.825Z,8.20
2019-04-03T06:08:51.830Z,8.20
2019-04-03T06:10:57.991Z,8.10
2019-04-03T06:13:04.896Z,8.10
2019-04-03T06:15:09.808Z,8.10
2019-04-03T06:17:14.134Z,8.10
2019-04-03T06:19:18.184Z,8.10
2019-04-03T06:21:22.163Z,8.20
2019-04-03T06:23:26.375Z,8.30
2019-04-03T06:25:31.100Z,8.30
2019-04-03T06:27:35.353Z,8.40
2019-04-03T06:29:39.380Z,8.50
2019-04-03T06:31:44.757Z,8.60
2019-04-03T06:33:50.995Z,8.70
2019-04-03T06:35:54.198Z,8.70
2019-04-03T06:37:58.114Z,8.80
2019-04-03T06:40:02.969Z,8.90
2019-04-03T06:42:07.878Z,8.90
2019-04-03T06:44:11.932Z,8.90
2019-04-03T06:46:15.853Z,9.00
2019-04-03T06:48:19.853Z,9.00
2019-04-03T06:50:23.731Z,9.00
2019-04-03T06:52:27.660Z,9.00
2019-04-03T06:54:32.356Z,9.00
2019-04-03T06:56:36.468Z,8.90
2019-04-03T06:58:41.844Z,9.00
2019-04-03T07:00:47.328Z,8.80
2019-04-03T07:02:51.549Z,8.80
2019-04-03T07:04:55.610Z,8.80
2019-04-03T07:06:59.827Z,8.80
2019-04-03T07:09:06.234Z,8.90
2019-04-03T07:11:22.424Z,9.00
2019-04-03T07:13:15.751Z,9.00
2019-04-03T07:15:19.918Z,9.00
2019-04-03T07:17:23.965Z,9.10
2019-04-03T07:19:27.874Z,9.20
2019-04-03T07:21:31.760Z,9.30
2019-04-03T07:23:35.865Z,9.20
2019-04-03T07:25:39.938Z,9.20
2019-04-03T07:27:43.909Z,9.20
2019-04-03T07:29:48.932Z,9.10
2019-04-03T07:31:55.141Z,9.10
2019-04-03T07:34:01.889Z,9.10
2019-04-03T07:36:05.209Z,9.10
2019-04-03T07:38:09.132Z,9.20
2019-04-03T07:40:14.460Z,9.20
2019-04-03T07:42:18.563Z,9.20
2019-04-03T07:44:22.654Z,9.30
2019-04-03T07:46:26.620Z,9.30
2019-04-03T07:48:33.033Z,9.20
2019-04-03T07:50:36.961Z,9.20
2019-04-03T07:52:41.092Z,9.20
2019-04-03T07:54:45.022Z,9.20
2019-04-03T07:56:49.057Z,9.20
2019-04-03T07:58:52.958Z,9.20
2019-04-03T08:00:56.861Z,9.20
2019-04-03T08:03:00.804Z,9.20
2019-04-03T08:05:07.032Z,9.30
2019-04-03T08:07:10.952Z,9.40
2019-04-03T08:09:14.837Z,9.30
2019-04-03T08:11:18.808Z,9.40
2019-04-03T08:13:22.744Z,9.50
2019-04-03T08:15:26.639Z,9.60
2019-04-03T08:17:30.560Z,9.50
2019-04-03T08:19:34.499Z,9.30
2019-04-03T08:21:38.797Z,9.30
2019-04-03T08:23:42.819Z,9.40
2019-04-03T08:25:48.400Z,9.40
2019-04-03T08:27:54.510Z,9.20
2019-04-03T08:29:57.958Z,9.40
2019-04-03T08:32:01.864Z,9.40
2019-04-03T08:34:15.601Z,9.30
2019-04-03T08:36:23.356Z,9.10
2019-04-03T08:38:17.113Z,9.00
2019-04-03T08:40:21.618Z,8.90
2019-04-03T08:42:27.753Z,9.00
2019-04-03T08:44:31.922Z,9.10
2019-04-03T08:46:36.359Z,9.10
2019-04-03T08:48:44.735Z,9.10
2019-04-03T08:50:48.704Z,9.10
2019-04-03T08:52:52.585Z,9.10
2019-04-03T08:54:56.534Z,9.10
2019-04-03T08:57:00.408Z,9.20
2019-04-03T08:59:04.307Z,9.30
2019-04-03T09:01:10.461Z,9.30
2019-04-03T09:03:14.657Z,9.20
2019-04-03T09:05:20.101Z,9.20
2019-04-03T09:07:24.956Z,9.20
2019-04-03T09:09:30.433Z,9.20
2019-04-03T09:11:36.293Z,9.30
2019-04-03T09:13:40.001Z,9.30
2019-04-03T09:15:44.138Z,9.50
2019-04-03T09:17:48.132Z,9.60
2019-04-03T09:19:52.051Z,9.70
2019-04-03T09:21:55.980Z,9.80
2019-04-03T09:24:00.131Z,9.90
2019-04-03T09:26:04.104Z,10.00
2019-04-03T09:28:08.971Z,10.10
2019-04-03T09:30:16.207Z,10.20
2019-04-03T09:32:20.882Z,10.30
2019-04-03T09:34:28.756Z,10.40
2019-04-03T09:36:34.330Z,10.40
2019-04-03T09:38:37.579Z,10.50
2019-04-03T09:40:41.711Z,10.50
2019-04-03T09:42:45.635Z,10.60
2019-04-03T09:44:49.822Z,10.80
2019-04-03T09:46:54.060Z,10.80
2019-04-03T09:48:58.008Z,10.80
2019-04-03T09:51:01.921Z,10.90
2019-04-03T09:53:05.945Z,10.80
2019-04-03T09:55:10.176Z,10.80
2019-04-03T09:57:14.342Z,10.70
2019-04-03T09:59:18.457Z,10.50
2019-04-03T10:01:22.680Z,10.40
2019-04-03T10:03:26.632Z,10.40
2019-04-03T10:05:30.617Z,10.20
2019-04-03T10:07:36.318Z,10.00
2019-04-03T10:09:43.105Z,10.00
2019-04-03T10:11:45.699Z,10.00
2019-04-03T10:13:49.818Z,9.90
2019-04-03T10:15:53.847Z,10.00
2019-04-03T10:17:57.758Z,10.00
2019-04-03T10:20:02.021Z,10.00
2019-04-03T10:22:06.172Z,10.00
2019-04-03T10:24:10.281Z,10.10
2019-04-03T10:26:14.261Z,10.00
2019-04-03T10:28:18.595Z,9.80
2019-04-03T10:30:22.760Z,9.80
2019-04-03T10:32:27.669Z,9.80
2019-04-03T10:34:34.824Z,9.70
2019-04-03T10:36:37.849Z,9.70
2019-04-03T10:38:42.769Z,9.80
2019-04-03T10:40:46.763Z,9.70
2019-04-03T10:42:50.683Z,9.70
2019-04-03T10:44:54.595Z,9.60
2019-04-03T10:46:58.871Z,9.50
2019-04-03T10:49:02.911Z,9.50
2019-04-03T10:51:07.065Z,9.50
2019-04-03T10:53:12.484Z,9.40
2019-04-03T10:55:16.413Z,9.40
2019-04-03T10:57:20.313Z,9.20
2019-04-03T10:59:24.253Z,9.10
2019-04-03T11:01:28.178Z,9.00
2019-04-03T11:03:32.071Z,9.10
2019-04-03T11:05:36.096Z,9.10
2019-04-03T11:07:40.183Z,9.20
2019-04-03T11:09:44.521Z,9.10
2019-04-03T11:11:48.565Z,9.10
2019-04-03T11:13:52.473Z,9.10
2019-04-03T11:15:56.398Z,9.20
2019-04-03T11:18:00.510Z,9.10
2019-04-03T11:20:09.121Z,9.20
2019-04-03T11:22:14.185Z,9.20
2019-04-03T11:24:18.206Z,9.30
2019-04-03T11:26:24.868Z,9.40
2019-04-03T11:28:27.716Z,9.50
2019-04-03T11:30:31.726Z,9.40
2019-04-03T11:32:35.638Z,9.50
2019-04-03T11:34:39.517Z,9.40
2019-04-03T11:36:43.484Z,9.30
2019-04-03T11:38:47.726Z,9.40
2019-04-03T11:40:51.681Z,9.30
2019-04-03T11:42:55.706Z,9.30
2019-04-03T11:44:59.590Z,9.50
2019-04-03T11:47:03.546Z,9.40
2019-04-03T11:49:07.727Z,9.30
2019-04-03T11:51:11.985Z,9.20
2019-04-03T11:53:15.934Z,9.20
2019-04-03T11:55:19.891Z,9.20
2019-04-03T11:57:26.651Z,9.20
2019-04-03T11:59:29.398Z,9.40
2019-04-03T12:01:33.646Z,9.60
2019-04-03T12:03:37.544Z,9.60
2019-04-03T12:05:41.636Z,9.70
2019-04-03T12:07:45.680Z,9.90
2019-04-03T12:09:49.606Z,9.90
2019-04-03T12:11:55.075Z,9.90
2019-04-03T12:13:59.363Z,9.90
2019-04-03T12:16:03.373Z,10.00
2019-04-03T12:18:07.260Z,9.90
2019-04-03T12:20:12.223Z,10.00
2019-04-03T12:22:17.786Z,10.10
2019-04-03T12:24:21.814Z,10.20
2019-04-03T12:26:25.745Z,10.20
2019-04-03T12:28:29.623Z,10.20
2019-04-03T12:30:33.657Z,10.10
2019-04-03T12:32:42.897Z,10.20
2019-04-03T12:34:43.866Z,10.00
2019-04-03T12:36:48.987Z,10.20
2019-04-03T12:38:55.396Z,10.20
2019-04-03T12:40:59.277Z,10.30
2019-04-03T12:43:03.288Z,10.20
2019-04-03T12:45:08.361Z,10.20
2019-04-03T12:47:14.424Z,10.30
2019-04-03T12:49:20.056Z,10.40
2019-04-03T12:51:23.920Z,10.40
2019-04-03T12:53:28.177Z,10.40
2019-04-03T12:55:32.404Z,10.70
2019-04-03T12:57:38.875Z,10.80
2019-04-03T12:59:42.496Z,11.10
2019-04-03T13:01:48.646Z,11.60
2019-04-03T13:03:52.069Z,11.60
2019-04-03T13:05:56.186Z,11.80
2019-04-03T13:08:00.396Z,11.80
2019-04-03T13:10:08.015Z,11.40
2019-04-03T13:12:12.864Z,11.20
2019-04-03T13:14:23.840Z,11.20
2019-04-03T13:16:22.668Z,11.20
2019-04-03T13:18:26.650Z,11.40
2019-04-03T13:20:35.971Z,11.40
2019-04-03T13:22:39.976Z,11.50
2019-04-03T13:24:46.187Z,11.60
2019-04-03T13:26:50.511Z,11.40
2019-04-03T13:28:54.784Z,11.30
2019-04-03T13:30:58.768Z,11.50
2019-04-03T13:33:05.645Z,11.50
2019-04-03T13:35:09.301Z,11.60
2019-04-03T13:37:13.242Z,11.30
2019-04-03T13:39:17.145Z,11.20
2019-04-03T13:41:21.315Z,11.10
2019-04-03T13:43:25.650Z,11.10
2019-04-03T13:45:31.484Z,10.90
2019-04-03T13:47:35.453Z,10.80
2019-04-03T13:49:39.352Z,10.70
2019-04-03T13:51:43.278Z,10.60
2019-04-03T13:53:47.588Z,10.60
2019-04-03T13:55:51.600Z,10.70
2019-04-03T13:57:56.384Z,10.60
2019-04-03T14:00:03.678Z,10.50
2019-04-03T14:02:05.862Z,10.50
2019-04-03T14:04:10.001Z,10.30
2019-04-03T14:06:14.095Z,10.30
2019-04-03T14:08:17.985Z,10.50
2019-04-03T14:10:22.179Z,10.40
2019-04-03T14:12:26.189Z,10.40
2019-04-03T14:14:30.341Z,10.50
2019-04-03T14:16:35.528Z,10.50
2019-04-03T14:18:40.767Z,10.50
2019-04-03T14:20:46.986Z,10.40
2019-04-03T14:22:50.906Z,10.30
2019-04-03T14:24:55.044Z,10.30
2019-04-03T14:26:59.161Z,10.20
2019-04-03T14:29:04.243Z,10.20
2019-04-03T14:31:09.447Z,10.10
2019-04-03T14:33:13.573Z,10.10
2019-04-03T14:35:44.624Z,10.10
2019-04-03T14:37:26.576Z,10.20
2019-04-03T14:39:29.223Z,10.30
2019-04-03T14:41:35.244Z,10.60
2019-04-03T14:43:38.930Z,11.10
2019-04-03T14:45:45.143Z,11.40
2019-04-03T14:47:49.957Z,11.80
2019-04-03T14:49:53.959Z,12.10
2019-04-03T14:51:57.895Z,12.40
2019-04-03T14:54:02.007Z,13.10
2019-04-03T14:56:06.371Z,13.30
2019-04-03T14:58:10.323Z,13.40
2019-04-03T15:00:26.067Z,13.30
2019-04-03T15:02:23.094Z,13.40
2019-04-03T15:04:26.371Z,13.30
2019-04-03T15:06:35.868Z,12.80
2019-04-03T15:08:45.198Z,12.30
2019-04-03T15:10:50.659Z,12.10
2019-04-03T15:12:54.938Z,11.80
2019-04-03T15:14:59.226Z,11.50
2019-04-03T15:17:06.323Z,11.20
2019-04-03T15:19:12.891Z,11.20
2019-04-03T15:21:16.583Z,11.10
2019-04-03T15:23:20.919Z,11.00
2019-04-03T15:25:24.941Z,10.90
2019-04-03T15:27:29.683Z,10.90
2019-04-03T15:29:36.187Z,10.80
2019-04-03T15:31:39.329Z,10.60
2019-04-03T15:33:43.623Z,10.70
2019-04-03T15:35:47.908Z,10.70
2019-04-03T15:37:52.344Z,10.60
2019-04-03T15:39:58.308Z,10.70
2019-04-03T15:42:03.794Z,10.70
2019-04-03T15:44:08.245Z,10.70
2019-04-03T15:46:12.161Z,10.70
2019-04-03T15:48:17.043Z,10.60
2019-04-03T15:50:21.917Z,10.40
2019-04-03T15:52:26.172Z,10.30
2019-04-03T15:54:34.026Z,10.40
2019-04-03T15:56:38.276Z,10.30
2019-04-03T15:58:42.199Z,10.20
2019-04-03T16:00:46.087Z,10.20
2019-04-03T16:02:50.033Z,10.20
2019-04-03T16:04:53.962Z,10.20
2019-04-03T16:07:00.670Z,10.20
2019-04-03T16:09:04.761Z,10.10
2019-04-03T16:11:08.665Z,10.10
2019-04-03T16:13:15.555Z,10.10
2019-04-03T16:15:18.286Z,10.00
2019-04-03T16:17:22.596Z,10.00
2019-04-03T16:19:27.082Z,10.00
2019-04-03T16:21:31.720Z,9.90
2019-04-03T16:23:37.292Z,9.90
2019-04-03T16:25:41.266Z,10.00
2019-04-03T16:27:45.299Z,10.00
2019-04-03T16:29:49.233Z,9.90
2019-04-03T16:31:54.599Z,9.90
2019-04-03T16:33:58.712Z,9.80
2019-04-03T16:36:03.014Z,9.80
2019-04-03T16:38:07.216Z,9.70
2019-04-03T16:40:11.584Z,9.70
2019-04-03T16:42:16.020Z,9.80
2019-04-03T16:44:21.010Z,9.70
2019-04-03T16:46:24.970Z,9.80
2019-04-03T16:48:28.982Z,9.90
2019-04-03T16:50:32.906Z,9.80
2019-04-03T16:52:37.828Z,9.70
2019-04-03T16:54:44.423Z,9.60
2019-04-03T16:56:48.831Z,9.60
2019-04-03T16:58:53.644Z,9.60
2019-04-03T17:00:57.977Z,9.70
2019-04-03T17:03:02.167Z,9.70
2019-04-03T17:05:10.162Z,9.80
2019-04-03T17:07:13.424Z,9.80
2019-04-03T17:09:17.341Z,9.80
2019-04-03T17:11:21.594Z,9.80
2019-04-03T17:13:25.588Z,9.70
2019-04-03T17:15:29.499Z,9.70
2019-04-03T17:17:33.824Z,9.60
2019-04-03T17:19:37.889Z,9.60
2019-04-03T17:21:42.168Z,9.40
2019-04-03T17:23:46.702Z,9.40
2019-04-03T17:25:51.708Z,9.40
2019-04-03T17:27:58.119Z,9.30
2019-04-03T17:30:01.481Z,9.30
2019-04-03T17:32:08.225Z,9.20
2019-04-03T17:34:11.821Z,9.40
2019-04-03T17:36:19.148Z,9.30
2019-04-03T17:38:21.543Z,9.30
2019-04-03T17:40:25.497Z,9.20
2019-04-03T17:42:29.439Z,9.10
2019-04-03T17:44:33.328Z,9.10
2019-04-03T17:46:39.992Z,9.00
2019-04-03T17:48:44.213Z,9.00
2019-04-03T17:50:48.092Z,8.80
2019-04-03T17:52:52.020Z,8.90
2019-04-03T17:54:55.913Z,9.00
2019-04-03T17:56:59.837Z,8.80
2019-04-03T17:59:03.743Z,8.80
2019-04-03T18:01:07.633Z,8.80
2019-04-03T18:03:11.630Z,8.80
2019-04-03T18:05:15.732Z,8.70
2019-04-03T18:07:19.654Z,8.80
2019-04-03T18:09:23.580Z,8.80
2019-04-03T18:11:27.471Z,8.70
2019-04-03T18:13:31.406Z,8.70
2019-04-03T18:15:35.290Z,8.70
2019-04-03T18:17:39.202Z,8.70
2019-04-03T18:19:43.112Z,8.70
2019-04-03T18:21:48.914Z,8.70
2019-04-03T18:23:53.347Z,8.60
2019-04-03T18:25:59.385Z,8.60
2019-04-03T18:28:05.015Z,8.50
2019-04-03T18:30:11.849Z,8.60
2019-04-03T18:32:17.729Z,8.60
2019-04-03T18:34:21.621Z,8.60
2019-04-03T18:36:27.332Z,8.50
2019-04-03T18:38:31.176Z,8.50
2019-04-03T18:40:35.173Z,8.40
2019-04-03T18:42:39.111Z,8.40
2019-04-03T18:44:43.000Z,8.30
2019-04-03T18:46:49.987Z,8.40
2019-04-03T18:48:53.843Z,8.50
2019-04-03T18:50:58.184Z,8.50
2019-04-03T18:53:02.605Z,8.40
2019-04-03T18:55:07.300Z,8.50
2019-04-03T18:57:11.184Z,8.50
2019-04-03T18:59:15.446Z,8.40
2019-04-03T19:01:19.622Z,8.40
2019-04-03T19:03:23.545Z,8.40
2019-04-03T19:05:27.448Z,8.40
2019-04-03T19:07:31.404Z,8.50
2019-04-03T19:09:35.288Z,8.50
2019-04-03T19:11:40.875Z,8.40
2019-04-03T19:13:48.982Z,8.40
2019-04-03T19:15:50.456Z,8.40
2019-04-03T19:17:59.843Z,8.40
2019-04-03T19:20:10.156Z,8.40
2019-04-03T19:22:05.440Z,8.30
2019-04-03T19:24:09.398Z,8.40
2019-04-03T19:26:13.279Z,8.30
2019-04-03T19:28:17.252Z,8.30
2019-04-03T19:30:21.255Z,8.40
2019-04-03T19:32:25.311Z,8.30
2019-04-03T19:34:29.320Z,8.40
2019-04-03T19:36:33.281Z,8.40
2019-04-03T19:38:42.336Z,8.40
2019-04-03T19:40:46.760Z,8.40
2019-04-03T19:42:51.146Z,8.40
2019-04-03T19:44:55.066Z,8.50
2019-04-03T19:46:59.836Z,8.50
2019-04-03T19:49:04.822Z,8.50
2019-04-03T19:51:11.148Z,8.50
2019-04-03T19:53:15.545Z,8.50
2019-04-03T19:55:21.453Z,8.40
2019-04-03T19:57:26.699Z,8.40
2019-04-03T19:59:34.241Z,8.40
2019-04-03T20:01:38.756Z,8.40
2019-04-03T20:03:44.066Z,8.40
2019-04-03T20:05:50.203Z,8.40
2019-04-03T20:07:54.149Z,8.30
2019-04-03T20:09:58.842Z,8.20
2019-04-03T20:12:03.134Z,8.20
2019-04-03T20:14:11.314Z,8.30
2019-04-03T20:16:14.050Z,8.30
2019-04-03T20:18:18.744Z,8.50
2019-04-03T20:20:22.951Z,8.50
2019-04-03T20:22:26.861Z,8.40
2019-04-03T20:24:30.801Z,8.40
2019-04-03T20:26:34.732Z,8.40
2019-04-03T20:28:38.654Z,8.40
2019-04-03T20:30:42.614Z,8.40
2019-04-03T20:32:46.562Z,8.30
2019-04-03T20:34:50.513Z,8.40
2019-04-03T20:36:54.913Z,8.50
2019-04-03T20:38:59.071Z,8.50
2019-04-03T20:41:03.119Z,8.50
2019-04-03T20:43:07.754Z,8.50
2019-04-03T20:45:11.861Z,8.50
2019-04-03T20:47:15.774Z,8.40
2019-04-03T20:49:19.646Z,8.40
2019-04-03T20:51:23.568Z,8.40
2019-04-03T20:53:27.456Z,8.40
2019-04-03T20:55:31.347Z,8.30
2019-04-03T20:57:35.304Z,8.40
2019-04-03T20:59:42.652Z,8.40
2019-04-03T21:01:44.799Z,8.30
2019-04-03T21:03:48.685Z,8.40
2019-04-03T21:05:52.629Z,8.30
2019-04-03T21:07:56.512Z,8.30
2019-04-03T21:10:00.995Z,8.30
2019-04-03T21:12:05.654Z,8.30
2019-04-03T21:14:11.288Z,8.30
2019-04-03T21:16:16.956Z,8.30
2019-04-03T21:18:21.204Z,8.30
2019-04-03T21:20:25.136Z,8.40
2019-04-03T21:22:30.261Z,8.30
2019-04-03T21:24:34.929Z,8.30
2019-04-03T21:26:39.027Z,8.30
2019-04-03T21:28:44.705Z,8.30
2019-04-03T21:30:48.817Z,8.40
2019-04-03T21:32:52.740Z,8.40
2019-04-03T21:34:56.619Z,8.40
2019-04-03T21:37:00.512Z,8.40
2019-04-03T21:39:06.159Z,8.40
2019-04-03T21:41:10.088Z,8.30
2019-04-03T21:43:14.050Z,8.30
2019-04-03T21:45:17.960Z,8.30
2019-04-03T21:47:21.852Z,8.30
2019-04-03T21:49:25.788Z,8.30
2019-04-03T21:51:29.695Z,8.30
2019-04-03T21:53:33.621Z,8.30
2019-04-03T21:55:37.514Z,8.30
2019-04-03T21:57:41.432Z,8.20
2019-04-03T21:59:45.359Z,8.20
2019-04-03T22:01:49.444Z,8.20
2019-04-03T22:03:53.756Z,8.20
2019-04-03T22:05:57.769Z,8.20
2019-04-03T22:08:01.649Z,8.20
2019-04-03T22:10:08.991Z,8.20
2019-04-03T22:12:13.015Z,8.20
2019-04-03T22:14:16.944Z,8.20
2019-04-03T22:16:20.954Z,8.20
2019-04-03T22:18:24.833Z,8.20
2019-04-03T22:20:29.593Z,8.10
2019-04-03T22:22:34.376Z,8.10
2019-04-03T22:24:38.486Z,8.10
2019-04-03T22:26:42.451Z,8.10
2019-04-03T22:28:46.588Z,8.10
2019-04-03T22:30:52.287Z,8.10
2019-04-03T22:32:56.436Z,8.10
2019-04-03T22:35:00.905Z,8.10
2019-04-03T22:37:05.440Z,8.10
2019-04-03T22:39:09.333Z,8.10
2019-04-03T22:41:13.240Z,8.10
2019-04-03T22:45:21.907Z,8.20
2019-04-03T22:47:25.841Z,8.20
2019-04-03T22:49:30.025Z,8.20
2019-04-03T22:51:34.004Z,8.10
2019-04-03T22:53:37.894Z,8.10
2019-04-03T22:55:41.801Z,8.00
2019-04-03T22:57:46.345Z,8.00
2019-04-03T22:59:50.294Z,8.00
2019-04-03T23:01:54.273Z,8.00
2019-04-03T23:03:58.188Z,8.00
2019-04-03T23:06:02.084Z,8.00
2019-04-03T23:08:05.973Z,8.00
2019-04-03T23:10:09.984Z,8.00
2019-04-03T23:12:13.955Z,7.90
2019-04-03T23:14:17.844Z,7.90
2019-04-03T23:16:21.741Z,8.00
2019-04-03T23:18:25.769Z,8.00
2019-04-03T23:20:29.671Z,8.00
2019-04-03T23:22:33.557Z,7.90
2019-04-03T23:24:37.658Z,7.90
2019-04-03T23:26:41.604Z,7.90
2019-04-03T23:28:45.494Z,7.90
2019-04-03T23:30:49.424Z,7.90
2019-04-03T23:32:53.309Z,7.90
2019-04-03T23:34:57.209Z,7.80
2019-04-03T23:37:01.107Z,7.80
2019-04-03T23:39:07.566Z,7.80
2019-04-03T23:41:11.441Z,7.70
2019-04-03T23:43:15.394Z,7.80
2019-04-03T23:45:19.983Z,7.80
2019-04-03T23:47:23.897Z,7.70
2019-04-03T23:49:27.818Z,7.80
2019-04-03T23:51:31.908Z,7.70
2019-04-03T23:53:35.829Z,7.80
2019-04-03T23:55:39.723Z,7.80
2019-04-03T23:57:43.593Z,7.80
2019-04-03T23:59:47.508Z,7.70
